RAJ401 WADL-WADD
Flight info
| Callsign | RAJ401 |
|---|---|
| Flight time | 0h 25m |
| Altitude | 30000 |
| Route | AGUNG BLI |
| Aircraft | A400/M-SDFGHIRWY/EB2 |
Departure
| Time | 2026-05-04 02:13 |
|---|---|
| Airport | Lombok International Airport (WADL) |
Arrival
| Time | 2026-05-04 02:39 |
|---|---|
| Airport | Denpasar I Gusti Ngurah Rai International Airport (WADD) |
| Time | Latitude | Longitude | Altitude | Speed | Heading |
|---|---|---|---|---|---|
| 2026-05-04 01:15 | -8.76074 | 116.27387 | 325 ft | 0 kts | 219° |
| 2026-05-04 01:28 | -8.76072 | 116.27388 | 330 ft | 3 kts | 219° |
| 2026-05-04 01:29 | -8.76057 | 116.27400 | 327 ft | 3 kts | 219° |
| 2026-05-04 01:29 | -8.76043 | 116.27412 | 326 ft | 3 kts | 219° |
| 2026-05-04 01:29 | -8.76030 | 116.27423 | 328 ft | 0 kts | 219° |
| 2026-05-04 02:07 | -8.76034 | 116.27415 | 327 ft | 3 kts | 272° |
| 2026-05-04 02:07 | -8.75988 | 116.27380 | 326 ft | 12 kts | 325° |
| 2026-05-04 02:07 | -8.75929 | 116.27330 | 328 ft | 10 kts | 313° |
| 2026-05-04 02:07 | -8.75882 | 116.27304 | 328 ft | 7 kts | 351° |
| 2026-05-04 02:08 | -8.75864 | 116.27305 | 329 ft | 1 kts | 37° |
| 2026-05-04 02:08 | -8.75861 | 116.27307 | 330 ft | 0 kts | 37° |
| 2026-05-04 02:08 | -8.75852 | 116.27314 | 328 ft | 3 kts | 37° |
| 2026-05-04 02:09 | -8.75842 | 116.27322 | 329 ft | 1 kts | 37° |
| 2026-05-04 02:09 | -8.75838 | 116.27325 | 329 ft | 5 kts | 37° |
| 2026-05-04 02:09 | -8.75770 | 116.27384 | 328 ft | 15 kts | 43° |
| 2026-05-04 02:09 | -8.75700 | 116.27439 | 330 ft | 10 kts | 18° |
| 2026-05-04 02:10 | -8.75646 | 116.27426 | 331 ft | 8 kts | 322° |
| 2026-05-04 02:10 | -8.75612 | 116.27386 | 331 ft | 8 kts | 307° |
| 2026-05-04 02:10 | -8.75580 | 116.27343 | 331 ft | 8 kts | 307° |
| 2026-05-04 02:10 | -8.75526 | 116.27274 | 331 ft | 22 kts | 313° |
| 2026-05-04 02:11 | -8.75427 | 116.27160 | 331 ft | 20 kts | 311° |
| 2026-05-04 02:11 | -8.75301 | 116.27005 | 330 ft | 39 kts | 308° |
| 2026-05-04 02:11 | -8.75137 | 116.26800 | 329 ft | 31 kts | 308° |
| 2026-05-04 02:11 | -8.75025 | 116.26656 | 327 ft | 19 kts | 308° |
| 2026-05-04 02:12 | -8.74979 | 116.26569 | 327 ft | 6 kts | 309° |
| 2026-05-04 02:12 | -8.74961 | 116.26576 | 329 ft | 1 kts | 52° |
| 2026-05-04 02:12 | -8.74965 | 116.26591 | 329 ft | 10 kts | 119° |
| 2026-05-04 02:12 | -8.75152 | 116.26824 | 329 ft | 76 kts | 128° |
| 2026-05-04 02:13 | -8.75620 | 116.27409 | 327 ft | 136 kts | 130° |
| 2026-05-04 02:13 | -8.76329 | 116.28239 | 538 ft | 174 kts | 130° |
| 2026-05-04 02:13 | -8.77163 | 116.29204 | 1096 ft | 189 kts | 131° |
| 2026-05-04 02:13 | -8.78063 | 116.30296 | 1556 ft | 212 kts | 125° |
| 2026-05-04 02:14 | -8.78888 | 116.31579 | 2189 ft | 225 kts | 120° |
| 2026-05-04 02:14 | -8.79675 | 116.32999 | 2928 ft | 228 kts | 118° |
| 2026-05-04 02:14 | -8.80644 | 116.34157 | 4033 ft | 217 kts | 143° |
| 2026-05-04 02:14 | -8.82109 | 116.34722 | 4584 ft | 238 kts | 169° |
| 2026-05-04 02:15 | -8.83789 | 116.34646 | 5106 ft | 252 kts | 189° |
| 2026-05-04 02:15 | -8.85397 | 116.34091 | 6221 ft | 238 kts | 203° |
| 2026-05-04 02:15 | -8.86803 | 116.33268 | 7266 ft | 231 kts | 211° |
| 2026-05-04 02:15 | -8.88156 | 116.32320 | 7744 ft | 250 kts | 213° |
| 2026-05-04 02:16 | -8.89578 | 116.31177 | 8143 ft | 268 kts | 218° |
| 2026-05-04 02:16 | -8.90797 | 116.29730 | 8924 ft | 270 kts | 238° |
| 2026-05-04 02:16 | -8.91525 | 116.28035 | 9948 ft | 261 kts | 253° |
| 2026-05-04 02:16 | -8.91859 | 116.26224 | 10713 ft | 264 kts | 264° |
| 2026-05-04 02:17 | -8.91900 | 116.24326 | 11189 ft | 279 kts | 271° |
| 2026-05-04 02:17 | -8.91867 | 116.22262 | 11192 ft | 310 kts | 270° |
| 2026-05-04 02:17 | -8.91859 | 116.19998 | 11015 ft | 338 kts | 269° |
| 2026-05-04 02:17 | -8.91854 | 116.17523 | 10662 ft | 358 kts | 270° |
| 2026-05-04 02:18 | -8.91849 | 116.14962 | 10325 ft | 370 kts | 270° |
| 2026-05-04 02:18 | -8.91841 | 116.12325 | 9992 ft | 377 kts | 270° |
| 2026-05-04 02:18 | -8.91831 | 116.09710 | 9993 ft | 373 kts | 270° |
| 2026-05-04 02:18 | -8.91821 | 116.07090 | 9995 ft | 370 kts | 270° |
| 2026-05-04 02:19 | -8.91809 | 116.04493 | 9993 ft | 368 kts | 270° |
| 2026-05-04 02:19 | -8.91797 | 116.01935 | 9991 ft | 366 kts | 270° |
| 2026-05-04 02:19 | -8.91784 | 115.99672 | 9989 ft | 363 kts | 270° |
| 2026-05-04 02:19 | -8.91769 | 115.97105 | 9986 ft | 363 kts | 270° |
| 2026-05-04 02:20 | -8.91758 | 115.95404 | 9985 ft | 363 kts | 270° |
| 2026-05-04 02:20 | -8.91748 | 115.93825 | 9983 ft | 361 kts | 270° |
| 2026-05-04 02:20 | -8.91733 | 115.91269 | 9984 ft | 362 kts | 270° |
| 2026-05-04 02:20 | -8.91719 | 115.88751 | 9984 ft | 362 kts | 270° |
| 2026-05-04 02:21 | -8.91703 | 115.86190 | 9987 ft | 362 kts | 270° |
| 2026-05-04 02:21 | -8.91704 | 115.83666 | 9981 ft | 361 kts | 268° |
| 2026-05-04 02:21 | -8.91796 | 115.81118 | 9985 ft | 361 kts | 269° |
| 2026-05-04 02:21 | -8.91830 | 115.78636 | 9979 ft | 361 kts | 269° |
| 2026-05-04 02:22 | -8.91848 | 115.76096 | 9980 ft | 361 kts | 270° |
| 2026-05-04 02:22 | -8.91860 | 115.73539 | 9981 ft | 361 kts | 269° |
| 2026-05-04 02:22 | -8.91866 | 115.71010 | 9977 ft | 361 kts | 270° |
| 2026-05-04 02:22 | -8.91872 | 115.68492 | 9982 ft | 361 kts | 270° |
| 2026-05-04 02:23 | -8.91879 | 115.65990 | 9981 ft | 361 kts | 270° |
| 2026-05-04 02:23 | -8.91884 | 115.63442 | 9980 ft | 361 kts | 270° |
| 2026-05-04 02:23 | -8.91888 | 115.60916 | 9981 ft | 361 kts | 270° |
| 2026-05-04 02:23 | -8.91894 | 115.58369 | 9981 ft | 361 kts | 270° |
| 2026-05-04 02:24 | -8.91898 | 115.55860 | 9982 ft | 360 kts | 270° |
| 2026-05-04 02:24 | -8.91905 | 115.53308 | 9982 ft | 360 kts | 270° |
| 2026-05-04 02:24 | -8.91911 | 115.50785 | 9980 ft | 360 kts | 270° |
| 2026-05-04 02:24 | -8.91917 | 115.48265 | 9982 ft | 360 kts | 270° |
| 2026-05-04 02:25 | -8.91922 | 115.45711 | 9980 ft | 360 kts | 270° |
| 2026-05-04 02:25 | -8.91930 | 115.43197 | 9986 ft | 361 kts | 270° |
| 2026-05-04 02:25 | -8.91935 | 115.40641 | 9985 ft | 361 kts | 270° |
| 2026-05-04 02:25 | -8.91941 | 115.38123 | 9985 ft | 361 kts | 270° |
| 2026-05-04 02:26 | -8.91946 | 115.35597 | 9987 ft | 361 kts | 270° |
| 2026-05-04 02:26 | -8.91950 | 115.33037 | 9987 ft | 361 kts | 270° |
| 2026-05-04 02:26 | -8.91956 | 115.30495 | 9984 ft | 361 kts | 270° |
| 2026-05-04 02:26 | -8.91961 | 115.27977 | 9837 ft | 361 kts | 270° |
| 2026-05-04 02:27 | -8.91965 | 115.25447 | 9398 ft | 357 kts | 270° |
| 2026-05-04 02:27 | -8.91971 | 115.22959 | 8972 ft | 354 kts | 270° |
| 2026-05-04 02:27 | -8.91976 | 115.20467 | 8559 ft | 351 kts | 270° |
| 2026-05-04 02:27 | -8.91981 | 115.18018 | 8156 ft | 349 kts | 270° |
| 2026-05-04 02:28 | -8.91981 | 115.15600 | 7757 ft | 346 kts | 270° |
| 2026-05-04 02:28 | -8.91978 | 115.13204 | 7372 ft | 339 kts | 270° |
| 2026-05-04 02:28 | -8.91975 | 115.10850 | 6974 ft | 327 kts | 270° |
| 2026-05-04 02:28 | -8.91966 | 115.08567 | 6568 ft | 320 kts | 270° |
| 2026-05-04 02:29 | -8.91955 | 115.06372 | 6161 ft | 309 kts | 270° |
| 2026-05-04 02:29 | -8.91943 | 115.04208 | 5728 ft | 300 kts | 269° |
| 2026-05-04 02:29 | -8.91930 | 115.02128 | 5297 ft | 294 kts | 270° |
| 2026-05-04 02:29 | -8.91917 | 115.00072 | 4880 ft | 289 kts | 270° |
| 2026-05-04 02:30 | -8.91901 | 114.98069 | 4535 ft | 283 kts | 270° |
| 2026-05-04 02:30 | -8.91883 | 114.96108 | 4194 ft | 277 kts | 270° |
| 2026-05-04 02:30 | -8.91539 | 114.94197 | 3822 ft | 275 kts | 295° |
| 2026-05-04 02:30 | -8.90394 | 114.92719 | 3537 ft | 268 kts | 324° |
| 2026-05-04 02:31 | -8.88723 | 114.91978 | 3270 ft | 258 kts | 353° |
| 2026-05-04 02:31 | -8.86971 | 114.91799 | 3028 ft | 253 kts | 359° |
| 2026-05-04 02:31 | -8.85233 | 114.91703 | 2961 ft | 242 kts | 0° |
| 2026-05-04 02:31 | -8.83667 | 114.91639 | 2954 ft | 233 kts | 1° |
| 2026-05-04 02:32 | -8.82075 | 114.91583 | 2953 ft | 221 kts | 1° |
| 2026-05-04 02:32 | -8.80583 | 114.91531 | 2945 ft | 212 kts | 1° |
| 2026-05-04 02:32 | -8.79124 | 114.91482 | 2931 ft | 205 kts | 2° |
| 2026-05-04 02:32 | -8.77728 | 114.91454 | 2915 ft | 200 kts | 6° |
| 2026-05-04 02:33 | -8.76494 | 114.91959 | 2821 ft | 192 kts | 48° |
| 2026-05-04 02:33 | -8.76016 | 114.92694 | 2725 ft | 188 kts | 73° |
| 2026-05-04 02:33 | -8.75846 | 114.94416 | 2577 ft | 184 kts | 89° |
| 2026-05-04 02:33 | -8.75818 | 114.95272 | 2516 ft | 183 kts | 89° |
| 2026-05-04 02:34 | -8.75798 | 114.96561 | 2392 ft | 182 kts | 90° |
| 2026-05-04 02:34 | -8.75704 | 114.97795 | 2327 ft | 170 kts | 83° |
| 2026-05-04 02:34 | -8.75432 | 114.98941 | 2144 ft | 172 kts | 73° |
| 2026-05-04 02:34 | -8.75104 | 115.00110 | 2277 ft | 171 kts | 80° |
| 2026-05-04 02:35 | -8.74957 | 115.01292 | 2490 ft | 167 kts | 88° |
| 2026-05-04 02:35 | -8.74964 | 115.02481 | 2518 ft | 175 kts | 94° |
| 2026-05-04 02:35 | -8.75061 | 115.03699 | 2580 ft | 169 kts | 98° |
| 2026-05-04 02:35 | -8.75170 | 115.04823 | 2452 ft | 158 kts | 95° |
| 2026-05-04 02:36 | -8.75209 | 115.05943 | 2090 ft | 163 kts | 91° |
| 2026-05-04 02:36 | -8.75227 | 115.07113 | 1654 ft | 168 kts | 94° |
| 2026-05-04 02:36 | -8.75299 | 115.08276 | 1285 ft | 164 kts | 93° |
| 2026-05-04 02:36 | -8.75295 | 115.09407 | 1070 ft | 159 kts | 89° |
| 2026-05-04 02:37 | -8.75174 | 115.10505 | 880 ft | 155 kts | 83° |
| 2026-05-04 02:37 | -8.75018 | 115.11568 | 662 ft | 154 kts | 84° |
| 2026-05-04 02:37 | -8.74955 | 115.12684 | 621 ft | 157 kts | 91° |
| 2026-05-04 02:37 | -8.74970 | 115.13831 | 264 ft | 169 kts | 90° |
| 2026-05-04 02:38 | -8.74913 | 115.14951 | 149 ft | 160 kts | 86° |
| 2026-05-04 02:38 | -8.74866 | 115.16021 | 47 ft | 142 kts | 91° |
| 2026-05-04 02:38 | -8.74841 | 115.16940 | 30 ft | 123 kts | 86° |
| 2026-05-04 02:38 | -8.74795 | 115.17718 | 29 ft | 97 kts | 79° |
| 2026-05-04 02:39 | -8.74692 | 115.18104 | 32 ft | 6 kts | 24° |
| 2026-05-04 02:39 | -8.74650 | 115.18087 | 33 ft | 20 kts | 320° |
| 2026-05-04 02:39 | -8.74630 | 115.17912 | 34 ft | 35 kts | 269° |
| 2026-05-04 02:39 | -8.74630 | 115.17776 | 34 ft | 8 kts | 303° |
| 2026-05-04 02:40 | -8.74594 | 115.17775 | 34 ft | 4 kts | 0° |
| 2026-05-04 02:40 | -8.74579 | 115.17775 | 32 ft | 1 kts | 359° |
| 2026-05-04 02:40 | -8.74540 | 115.17774 | 34 ft | 7 kts | 359° |
| 2026-05-04 02:40 | -8.74526 | 115.17773 | 33 ft | 0 kts | 354° |
| 2026-05-04 02:41 | -8.74520 | 115.17773 | 34 ft | 0 kts | 356° |
| 2026-05-04 03:39 | -8.74535 | 115.17774 | 34 ft | 3 kts | 356° |
| 2026-05-04 03:39 | -8.74553 | 115.17775 | 31 ft | 3 kts | 356° |
| 2026-05-04 03:39 | -8.74571 | 115.17776 | 33 ft | 3 kts | 356° |
| 2026-05-04 03:40 | -8.74590 | 115.17778 | 34 ft | 3 kts | 356° |
| 2026-05-04 03:40 | -8.74608 | 115.17779 | 33 ft | 2 kts | 356° |
| 2026-05-04 03:41 | -8.74599 | 115.17772 | 32 ft | 5 kts | 285° |
| 2026-05-04 03:41 | -8.74633 | 115.17716 | 34 ft | 10 kts | 241° |
| 2026-05-04 03:41 | -8.74643 | 115.17652 | 34 ft | 9 kts | 265° |
| 2026-05-04 03:42 | -8.74645 | 115.17593 | 34 ft | 8 kts | 269° |
| 2026-05-04 03:42 | -8.74646 | 115.17527 | 33 ft | 10 kts | 269° |
| 2026-05-04 03:42 | -8.74648 | 115.17461 | 33 ft | 11 kts | 269° |
| 2026-05-04 03:42 | -8.74649 | 115.17380 | 33 ft | 12 kts | 269° |
| 2026-05-04 03:43 | -8.74652 | 115.17292 | 33 ft | 13 kts | 262° |
| 2026-05-04 03:43 | -8.74661 | 115.17199 | 33 ft | 14 kts | 265° |
| 2026-05-04 03:43 | -8.74666 | 115.17098 | 33 ft | 15 kts | 266° |
| 2026-05-04 03:43 | -8.74671 | 115.16995 | 33 ft | 15 kts | 268° |
| 2026-05-04 03:44 | -8.74673 | 115.16887 | 33 ft | 16 kts | 268° |
| 2026-05-04 03:44 | -8.74676 | 115.16776 | 33 ft | 16 kts | 269° |
| 2026-05-04 03:44 | -8.74682 | 115.16664 | 33 ft | 16 kts | 267° |
| 2026-05-04 03:44 | -8.74688 | 115.16551 | 34 ft | 17 kts | 267° |
| 2026-05-04 03:45 | -8.74695 | 115.16432 | 34 ft | 17 kts | 266° |
| 2026-05-04 03:45 | -8.74702 | 115.16313 | 34 ft | 17 kts | 266° |
| 2026-05-04 03:45 | -8.74703 | 115.16191 | 34 ft | 17 kts | 272° |
| 2026-05-04 03:45 | -8.74704 | 115.16069 | 34 ft | 17 kts | 264° |
| 2026-05-04 03:46 | -8.74717 | 115.15945 | 34 ft | 18 kts | 264° |
| 2026-05-04 03:46 | -8.74726 | 115.15820 | 32 ft | 17 kts | 274° |
| 2026-05-04 03:46 | -8.74721 | 115.15698 | 34 ft | 17 kts | 271° |
| 2026-05-04 03:46 | -8.74731 | 115.15576 | 34 ft | 18 kts | 262° |
| 2026-05-04 03:47 | -8.74738 | 115.15456 | 34 ft | 17 kts | 270° |
| 2026-05-04 03:47 | -8.74808 | 115.15391 | 32 ft | 16 kts | 179° |
| 2026-05-04 03:47 | -8.74884 | 115.15413 | 30 ft | 14 kts | 129° |
| 2026-05-04 03:47 | -8.74885 | 115.15656 | 30 ft | 64 kts | 88° |
| 2026-05-04 03:48 | -8.74858 | 115.16328 | 29 ft | 127 kts | 88° |
| 2026-05-04 03:48 | -8.74825 | 115.17419 | 84 ft | 178 kts | 88° |
| 2026-05-04 03:48 | -8.74741 | 115.18737 | 618 ft | 192 kts | 85° |
| 2026-05-04 03:48 | -8.74572 | 115.20012 | 1730 ft | 173 kts | 81° |
| 2026-05-04 03:49 | -8.74316 | 115.21221 | 2436 ft | 189 kts | 78° |
| 2026-05-04 03:49 | -8.74017 | 115.22593 | 2992 ft | 208 kts | 77° |
| 2026-05-04 03:49 | -8.73637 | 115.24045 | 3599 ft | 224 kts | 76° |
| 2026-05-04 03:49 | -8.73150 | 115.25611 | 4088 ft | 240 kts | 72° |
| 2026-05-04 03:50 | -8.72828 | 115.27310 | 4722 ft | 247 kts | 85° |
| 2026-05-04 03:50 | -8.72665 | 115.29060 | 5376 ft | 253 kts | 86° |
| 2026-05-04 03:50 | -8.72527 | 115.30834 | 6048 ft | 258 kts | 86° |
| 2026-05-04 03:50 | -8.72362 | 115.32663 | 6725 ft | 262 kts | 79° |
| 2026-05-04 03:51 | -8.71550 | 115.34296 | 7343 ft | 270 kts | 49° |
| 2026-05-04 03:51 | -8.69971 | 115.35352 | 8023 ft | 278 kts | 20° |
| 2026-05-04 03:51 | -8.68049 | 115.35697 | 8747 ft | 281 kts | 8° |